Time,TemperatureF,DewpointF,PressureIn,WindDirection,WindDirectionDegrees,WindSpeedMPH,WindSpeedGustMPH,Humidity,HourlyPrecipIn,Conditions,Clouds,dailyrainin,SoftwareType,DateUTC
2013-07-16 00:43:00,74.0,70.0,-100.00,North,5,0.0,1.0,87,0.00,,,-99.99,,2013-07-16 04:43:00,
2013-07-16 00:53:00,74.0,70.0,-100.00,North,5,0.0,0.0,87,0.00,,,-99.99,,2013-07-16 04:53:00,
2013-07-16 01:11:00,74.0,70.0,-100.00,North,5,0.0,0.0,87,0.00,,,-99.99,,2013-07-16 05:11:00,
2013-07-16 02:01:00,72.0,69.0,-100.00,North,5,2.0,2.0,87,0.00,,,-99.99,,2013-07-16 06:01:00,
2013-07-16 02:32:00,72.0,69.0,-100.00,North,5,1.0,3.0,88,0.00,,,-99.99,,2013-07-16 06:32:00,
2013-07-16 02:52:00,72.0,68.0,-100.00,North,5,4.0,5.0,88,0.00,,,-99.99,,2013-07-16 06:52:00,
2013-07-16 03:01:00,72.0,68.0,-100.00,North,5,0.0,4.0,88,0.00,,,-99.99,,2013-07-16 07:01:00,
2013-07-16 03:12:00,72.0,69.0,-100.00,North,5,0.0,2.0,88,0.00,,,-99.99,,2013-07-16 07:12:00,
2013-07-16 03:32:00,72.0,68.0,-100.00,North,5,0.0,1.0,88,0.00,,,-99.99,,2013-07-16 07:32:00,
2013-07-16 03:43:00,71.0,68.0,-100.00,North,5,0.0,0.0,88,0.00,,,-99.99,,2013-07-16 07:43:00,
2013-07-16 03:52:00,71.0,67.0,-100.00,North,5,0.0,0.0,88,0.00,,,-99.99,,2013-07-16 07:52:00,
2013-07-16 04:01:00,71.0,67.0,-100.00,North,5,2.0,2.0,88,0.00,,,-99.99,,2013-07-16 08:01:00,
2013-07-16 04:11:00,71.0,67.0,-100.00,North,5,0.0,3.0,88,0.00,,,-99.99,,2013-07-16 08:11:00,
2013-07-16 05:01:00,70.0,67.0,-100.00,North,5,0.0,2.0,88,0.00,,,-99.99,,2013-07-16 09:01:00,
2013-07-16 05:12:00,71.0,67.0,-100.00,North,5,0.0,0.0,88,0.00,,,-99.99,,2013-07-16 09:12:00,
2013-07-16 05:42:00,70.0,67.0,-100.00,North,5,0.0,0.0,88,0.00,,,-99.99,,2013-07-16 09:42:00,
2013-07-16 06:01:00,70.0,66.0,-100.00,North,5,2.0,2.0,88,0.00,,,-99.99,,2013-07-16 10:01:00,
2013-07-16 06:11:00,70.0,66.0,-100.00,North,5,2.0,4.0,88,0.00,,,-99.99,,2013-07-16 10:11:00,
2013-07-16 06:22:00,70.0,66.0,-100.00,North,5,2.0,4.0,88,0.00,,,-99.99,,2013-07-16 10:22:00,
2013-07-16 06:31:00,70.0,67.0,-100.00,North,5,0.0,3.0,88,0.00,,,-99.99,,2013-07-16 10:31:00,
2013-07-16 06:43:00,70.0,67.0,-100.00,North,5,3.0,4.0,88,0.00,,,-99.99,,2013-07-16 10:43:00,
2013-07-16 07:01:00,70.0,67.0,-100.00,North,5,0.0,1.0,88,0.00,,,-99.99,,2013-07-16 11:01:00,
2013-07-16 07:11:00,70.0,67.0,-100.00,North,5,0.0,0.0,88,0.00,,,-99.99,,2013-07-16 11:11:00,
2013-07-16 07:22:00,71.0,67.0,-100.00,North,5,0.0,0.0,88,0.00,,,-99.99,,2013-07-16 11:22:00,
2013-07-16 07:32:00,72.0,68.0,-100.00,North,5,0.0,1.0,88,0.00,,,-99.99,,2013-07-16 11:32:00,
2013-07-16 07:42:00,73.0,69.0,-100.00,North,5,2.0,3.0,88,0.00,,,-99.99,,2013-07-16 11:42:00,
2013-07-16 08:11:00,76.0,73.0,-100.00,North,5,1.0,3.0,88,0.00,,,-99.99,,2013-07-16 12:11:00,
2013-07-16 08:22:00,76.0,73.0,-100.00,North,5,1.0,4.0,88,0.00,,,-99.99,,2013-07-16 12:22:00,
2013-07-16 08:32:00,76.0,73.0,-100.00,North,5,4.0,5.0,87,0.00,,,-99.99,,2013-07-16 12:32:00,
2013-07-16 08:43:00,77.0,72.0,-100.00,North,5,4.0,5.0,85,0.00,,,-99.99,,2013-07-16 12:43:00,
2013-07-16 09:42:00,84.0,70.0,-100.00,North,5,2.0,5.0,64,0.00,,,-99.99,,2013-07-16 13:42:00,
2013-07-16 10:11:00,85.0,69.0,-100.00,North,5,3.0,5.0,58,0.00,,,-99.99,,2013-07-16 14:11:00,
2013-07-16 11:01:00,88.0,69.0,-100.00,North,5,4.0,8.0,53,0.00,,,-99.99,,2013-07-16 15:01:00,
2013-07-16 11:22:00,89.0,68.0,-100.00,North,5,4.0,9.0,50,0.00,,,-99.99,,2013-07-16 15:22:00,
2013-07-16 11:43:00,89.0,67.0,-100.00,North,5,6.0,9.0,48,0.00,,,-99.99,,2013-07-16 15:43:00,
2013-07-16 12:01:00,90.0,67.0,-100.00,North,5,4.0,9.0,47,0.00,,,-99.99,,2013-07-16 16:01:00,
2013-07-16 12:11:00,90.0,67.0,-100.00,North,5,4.0,9.0,47,0.00,,,-99.99,,2013-07-16 16:11:00,
2013-07-16 12:22:00,90.0,68.0,-100.00,North,5,6.0,9.0,47,0.00,,,-99.99,,2013-07-16 16:22:00,
2013-07-16 12:32:00,90.0,67.0,-100.00,North,5,5.0,9.0,47,0.00,,,-99.99,,2013-07-16 16:32:00,
2013-07-16 12:43:00,90.0,67.0,-100.00,North,5,7.0,11.0,46,0.00,,,-99.99,,2013-07-16 16:43:00,
2013-07-16 13:02:00,89.0,67.0,-100.00,North,5,4.0,9.0,48,0.00,,,-99.99,,2013-07-16 17:02:00,
2013-07-16 13:43:00,90.0,66.0,-100.00,North,5,2.0,12.0,45,0.00,,,-99.99,,2013-07-16 17:43:00,
2013-07-16 14:22:00,91.0,66.0,-100.00,North,5,6.0,12.0,44,0.00,,,-99.99,,2013-07-16 18:22:00,
2013-07-16 14:43:00,91.0,67.0,-100.00,North,5,6.0,11.0,45,0.00,,,-99.99,,2013-07-16 18:43:00,
2013-07-16 15:11:00,92.0,66.0,-100.00,North,5,6.0,11.0,43,0.00,,,-99.99,,2013-07-16 19:11:00,
2013-07-16 15:43:00,92.0,66.0,-100.00,North,5,6.0,10.0,42,0.00,,,-99.99,,2013-07-16 19:43:00,
2013-07-16 16:03:00,92.0,68.0,-100.00,North,5,6.0,10.0,44,0.00,,,-99.99,,2013-07-16 20:03:00,
2013-07-16 16:12:00,92.0,68.0,-100.00,North,5,6.0,10.0,44,0.00,,,-99.99,,2013-07-16 20:12:00,
2013-07-16 16:22:00,94.0,68.0,-100.00,North,5,3.0,9.0,43,0.00,,,-99.99,,2013-07-16 20:22:00,
2013-07-16 16:32:00,93.0,67.0,-100.00,North,5,6.0,11.0,43,0.00,,,-99.99,,2013-07-16 20:32:00,
2013-07-16 16:43:00,92.0,68.0,-100.00,North,5,5.0,9.0,45,0.00,,,-99.99,,2013-07-16 20:43:00,
2013-07-16 16:52:00,92.0,68.0,-100.00,North,5,5.0,9.0,45,0.00,,,-99.99,,2013-07-16 20:52:00,
2013-07-16 17:01:00,92.0,68.0,-100.00,North,5,5.0,9.0,45,0.00,,,-99.99,,2013-07-16 21:01:00,
2013-07-16 17:11:00,88.0,70.0,-100.00,North,5,9.0,13.0,55,0.00,,,-99.99,,2013-07-16 21:11:00,
2013-07-16 17:22:00,89.0,71.0,-100.00,North,5,6.0,12.0,55,0.00,,,-99.99,,2013-07-16 21:22:00,
2013-07-16 17:32:00,89.0,70.0,-100.00,North,5,6.0,12.0,54,0.00,,,-99.99,,2013-07-16 21:32:00,
2013-07-16 17:43:00,89.0,70.0,-100.00,North,5,9.0,11.0,53,0.00,,,-99.99,,2013-07-16 21:43:00,
2013-07-16 17:52:00,89.0,69.0,-100.00,North,5,9.0,12.0,52,0.00,,,-99.99,,2013-07-16 21:52:00,
2013-07-16 18:01:00,88.0,69.0,-100.00,North,0,7.0,10.0,53,0.00,,,-99.99,,2013-07-16 22:01:00,
2013-07-16 18:11:00,88.0,68.0,-100.00,North,5,7.0,10.0,50,0.00,,,-99.99,,2013-07-16 22:11:00,
2013-07-16 18:22:00,88.0,68.0,-100.00,North,5,7.0,10.0,50,0.00,,,-99.99,,2013-07-16 22:22:00,
2013-07-16 18:33:00,88.0,68.0,-100.00,North,5,8.0,9.0,52,0.00,,,-99.99,,2013-07-16 22:33:00,
2013-07-16 18:43:00,87.0,67.0,-100.00,North,5,6.0,9.0,51,0.00,,,-99.99,,2013-07-16 22:43:00,
2013-07-16 19:01:00,88.0,68.0,-100.00,North,5,4.0,7.0,51,0.00,,,-99.99,,2013-07-16 23:01:00,
2013-07-16 19:43:00,87.0,69.0,-100.00,North,5,2.0,5.0,54,0.00,,,-99.99,,2013-07-16 23:43:00,
2013-07-16 19:52:00,87.0,69.0,-100.00,North,5,2.0,5.0,54,0.00,,,-99.99,,2013-07-16 23:52:00,
2013-07-16 20:01:00,87.0,69.0,-100.00,North,5,2.0,5.0,54,0.00,,,-99.99,,2013-07-17 00:01:00,
2013-07-16 20:33:00,86.0,71.0,-100.00,North,5,0.0,1.0,60,0.00,,,-99.99,,2013-07-17 00:33:00,
2013-07-16 20:42:00,85.0,73.0,-100.00,North,5,3.0,3.0,65,0.00,,,-99.99,,2013-07-17 00:42:00,
2013-07-16 20:52:00,84.0,73.0,-100.00,North,5,1.0,4.0,68,0.00,,,-99.99,,2013-07-17 00:52:00,
2013-07-16 21:01:00,83.0,73.0,-100.00,North,5,0.0,1.0,71,0.00,,,-99.99,,2013-07-17 01:01:00,
2013-07-16 21:11:00,82.0,72.0,-100.00,North,5,0.0,0.0,71,0.00,,,-99.99,,2013-07-17 01:11:00,
2013-07-16 21:32:00,81.0,73.0,-100.00,North,5,1.0,1.0,76,0.00,,,-99.99,,2013-07-17 01:32:00,
2013-07-16 21:43:00,80.0,73.0,-100.00,North,5,0.0,1.0,79,0.00,,,-99.99,,2013-07-17 01:43:00,
2013-07-16 21:53:00,80.0,73.0,-100.00,North,5,0.0,1.0,79,0.00,,,-99.99,,2013-07-17 01:53:00,
2013-07-16 22:11:00,79.0,73.0,-100.00,North,5,0.0,1.0,81,0.00,,,-99.99,,2013-07-17 02:11:00,
2013-07-16 22:22:00,78.0,72.0,-100.00,North,5,0.0,1.0,82,0.00,,,-99.99,,2013-07-17 02:22:00,
2013-07-16 22:32:00,78.0,73.0,-100.00,North,5,0.0,0.0,83,0.00,,,-99.99,,2013-07-17 02:32:00,
2013-07-16 22:43:00,77.0,73.0,-100.00,North,5,1.0,2.0,84,0.00,,,-99.99,,2013-07-17 02:43:00,
2013-07-16 23:01:00,77.0,72.0,-100.00,North,5,0.0,1.0,84,0.00,,,-99.99,,2013-07-17 03:01:00,
2013-07-16 23:11:00,77.0,72.0,-100.00,North,5,0.0,2.0,85,0.00,,,-99.99,,2013-07-17 03:11:00,
2013-07-16 23:22:00,77.0,72.0,-100.00,North,5,0.0,2.0,85,0.00,,,-99.99,,2013-07-17 03:22:00,
2013-07-16 23:32:00,76.0,72.0,-100.00,North,5,1.0,2.0,85,0.00,,,-99.99,,2013-07-17 03:32:00,
2013-07-16 23:43:00,76.0,72.0,-100.00,North,5,0.0,3.0,86,0.00,,,-99.99,,2013-07-17 03:43:00,
2013-07-16 23:53:00,76.0,72.0,-100.00,North,5,0.0,3.0,86,0.00,,,-99.99,,2013-07-17 03:53:00,